sensor_id;sensor_type;location;lat;lon;timestamp;pressure;altitude;pressure_sealevel;temperature;humidity
2675;BME280;1347;42.122;24.746;2023-02-03T00:00:06;99799.41;;;5.30;72.87
2675;BME280;1347;42.122;24.746;2023-02-03T00:02:33;99821.34;;;5.25;72.28
2675;BME280;1347;42.122;24.746;2023-02-03T00:05:00;99818.94;;;5.24;72.66
2675;BME280;1347;42.122;24.746;2023-02-03T00:07:28;99802.16;;;5.22;72.88
2675;BME280;1347;42.122;24.746;2023-02-03T00:09:56;99800.56;;;5.21;72.92
2675;BME280;1347;42.122;24.746;2023-02-03T00:12:23;99785.06;;;5.21;72.79
2675;BME280;1347;42.122;24.746;2023-02-03T00:14:50;99803.91;;;5.26;72.71
2675;BME280;1347;42.122;24.746;2023-02-03T00:17:17;99801.69;;;5.19;72.90
2675;BME280;1347;42.122;24.746;2023-02-03T00:19:44;99800.44;;;5.17;72.24
2675;BME280;1347;42.122;24.746;2023-02-03T00:22:10;99822.78;;;5.23;72.38
2675;BME280;1347;42.122;24.746;2023-02-03T00:24:39;99811.63;;;5.15;72.31
2675;BME280;1347;42.122;24.746;2023-02-03T00:27:06;99802.03;;;5.18;71.90
2675;BME280;1347;42.122;24.746;2023-02-03T00:29:33;99806.66;;;5.17;71.25
2675;BME280;1347;42.122;24.746;2023-02-03T00:32:00;99800.56;;;5.21;71.00
2675;BME280;1347;42.122;24.746;2023-02-03T00:34:27;99794.97;;;5.26;70.57
2675;BME280;1347;42.122;24.746;2023-02-03T00:36:54;99805.31;;;5.32;69.84
2675;BME280;1347;42.122;24.746;2023-02-03T00:39:21;99802.91;;;5.39;69.16
2675;BME280;1347;42.122;24.746;2023-02-03T00:41:49;99814.22;;;5.41;69.30
2675;BME280;1347;42.122;24.746;2023-02-03T00:44:16;99826.03;;;5.45;68.83
2675;BME280;1347;42.122;24.746;2023-02-03T00:46:43;99808.28;;;5.48;68.27
2675;BME280;1347;42.122;24.746;2023-02-03T00:49:10;99810.19;;;5.47;68.40
2675;BME280;1347;42.122;24.746;2023-02-03T00:51:37;99815.97;;;5.46;67.67
2675;BME280;1347;42.122;24.746;2023-02-03T00:54:04;99814.84;;;5.47;67.53
2675;BME280;1347;42.122;24.746;2023-02-03T00:56:31;99822.19;;;5.46;67.34
2675;BME280;1347;42.122;24.746;2023-02-03T00:58:59;99828.44;;;5.47;67.81
2675;BME280;1347;42.122;24.746;2023-02-03T01:01:26;99832.13;;;5.42;67.58
2675;BME280;1347;42.122;24.746;2023-02-03T01:03:53;99841.56;;;5.45;67.33
2675;BME280;1347;42.122;24.746;2023-02-03T01:06:20;99849.56;;;5.41;67.44
2675;BME280;1347;42.122;24.746;2023-02-03T01:08:48;99843.78;;;5.43;68.09
2675;BME280;1347;42.122;24.746;2023-02-03T01:11:17;99841.22;;;5.46;67.70
2675;BME280;1347;42.122;24.746;2023-02-03T01:13:44;99838.19;;;5.48;67.48
2675;BME280;1347;42.122;24.746;2023-02-03T01:16:14;99842.50;;;5.49;67.63
2675;BME280;1347;42.122;24.746;2023-02-03T01:18:43;99839.91;;;5.52;67.42
2675;BME280;1347;42.122;24.746;2023-02-03T01:21:11;99836.38;;;5.52;67.35
2675;BME280;1347;42.122;24.746;2023-02-03T01:23:39;99828.84;;;5.58;66.45
2675;BME280;1347;42.122;24.746;2023-02-03T01:26:08;99832.06;;;5.60;67.03
2675;BME280;1347;42.122;24.746;2023-02-03T01:28:36;99835.22;;;5.62;66.76
2675;BME280;1347;42.122;24.746;2023-02-03T01:31:11;99842.56;;;5.61;66.94
2675;BME280;1347;42.122;24.746;2023-02-03T01:33:40;99845.78;;;5.63;67.00
2675;BME280;1347;42.122;24.746;2023-02-03T01:36:10;99854.94;;;5.59;66.56
2675;BME280;1347;42.122;24.746;2023-02-03T01:38:38;99849.28;;;5.64;66.36
2675;BME280;1347;42.122;24.746;2023-02-03T01:41:08;99859.25;;;5.60;66.52
2675;BME280;1347;42.122;24.746;2023-02-03T01:43:38;99859.25;;;5.60;66.58
2675;BME280;1347;42.122;24.746;2023-02-03T01:46:17;99863.09;;;5.59;66.92
2675;BME280;1347;42.122;24.746;2023-02-03T01:48:51;99848.81;;;5.62;66.94
2675;BME280;1347;42.122;24.746;2023-02-03T01:51:20;99856.97;;;5.62;67.26
2675;BME280;1347;42.122;24.746;2023-02-03T01:53:49;99854.13;;;5.58;67.42
2675;BME280;1347;42.122;24.746;2023-02-03T01:56:16;99859.25;;;5.60;67.91
2675;BME280;1347;42.122;24.746;2023-02-03T01:58:45;99857.16;;;5.57;68.34
2675;BME280;1347;42.122;24.746;2023-02-03T02:01:13;99874.28;;;5.57;68.79
2675;BME280;1347;42.122;24.746;2023-02-03T02:03:43;99873.00;;;5.54;69.03
2675;BME280;1347;42.122;24.746;2023-02-03T02:06:13;99877.50;;;5.50;69.53
2675;BME280;1347;42.122;24.746;2023-02-03T02:08:43;99893.47;;;5.52;69.90
2675;BME280;1347;42.122;24.746;2023-02-03T02:11:11;99895.88;;;5.53;70.04
2675;BME280;1347;42.122;24.746;2023-02-03T02:13:38;99887.56;;;5.50;70.40
2675;BME280;1347;42.122;24.746;2023-02-03T02:16:10;99884.09;;;5.49;70.95
2675;BME280;1347;42.122;24.746;2023-02-03T02:18:57;99890.16;;;5.46;71.25
2675;BME280;1347;42.122;24.746;2023-02-03T02:21:55;99895.28;;;5.48;71.35
2675;BME280;1347;42.122;24.746;2023-02-03T02:24:49;99903.13;;;5.49;71.78
2675;BME280;1347;42.122;24.746;2023-02-03T02:27:44;99897.03;;;5.44;72.06
2675;BME280;1347;42.122;24.746;2023-02-03T02:30:37;99901.69;;;5.43;72.70
2675;BME280;1347;42.122;24.746;2023-02-03T02:33:12;99893.38;;;5.40;72.90
2675;BME280;1347;42.122;24.746;2023-02-03T02:35:48;99900.13;;;5.34;73.35
2675;BME280;1347;42.122;24.746;2023-02-03T02:38:30;99903.78;;;5.38;73.32
2675;BME280;1347;42.122;24.746;2023-02-03T02:41:04;99909.88;;;5.35;73.63
2675;BME280;1347;42.122;24.746;2023-02-03T02:43:39;99909.38;;;5.33;74.10
2675;BME280;1347;42.122;24.746;2023-02-03T02:46:09;99925.69;;;5.33;74.08
2675;BME280;1347;42.122;24.746;2023-02-03T02:48:43;99922.38;;;5.27;74.02
2675;BME280;1347;42.122;24.746;2023-02-03T02:51:13;99921.88;;;5.34;74.20
2675;BME280;1347;42.122;24.746;2023-02-03T02:53:45;99924.44;;;5.22;74.51
2675;BME280;1347;42.122;24.746;2023-02-03T02:56:14;99921.09;;;5.25;74.44
2675;BME280;1347;42.122;24.746;2023-02-03T02:58:43;99919.50;;;5.24;74.73
2675;BME280;1347;42.122;24.746;2023-02-03T03:01:13;99919.50;;;5.24;74.45
2675;BME280;1347;42.122;24.746;2023-02-03T03:03:41;99913.56;;;5.22;74.80
2675;BME280;1347;42.122;24.746;2023-02-03T03:06:14;99929.56;;;5.23;74.86
2675;BME280;1347;42.122;24.746;2023-02-03T03:08:47;99927.66;;;5.24;74.39
2675;BME280;1347;42.122;24.746;2023-02-03T03:11:16;99926.38;;;5.21;74.43
2675;BME280;1347;42.122;24.746;2023-02-03T03:13:47;99917.28;;;5.17;74.03
2675;BME280;1347;42.122;24.746;2023-02-03T03:16:17;99930.06;;;5.16;74.21
2675;BME280;1347;42.122;24.746;2023-02-03T03:18:51;99927.34;;;5.16;74.03
2675;BME280;1347;42.122;24.746;2023-02-03T03:21:23;99927.19;;;5.13;74.31
2675;BME280;1347;42.122;24.746;2023-02-03T03:23:53;99925.09;;;5.10;74.55
2675;BME280;1347;42.122;24.746;2023-02-03T03:26:26;99930.09;;;5.08;74.42
2675;BME280;1347;42.122;24.746;2023-02-03T03:28:59;99940.63;;;5.09;74.60
2675;BME280;1347;42.122;24.746;2023-02-03T03:31:27;99948.28;;;5.16;74.07
2675;BME280;1347;42.122;24.746;2023-02-03T03:33:55;99947.19;;;5.17;73.83
2675;BME280;1347;42.122;24.746;2023-02-03T03:36:26;99945.72;;;5.19;74.25
2675;BME280;1347;42.122;24.746;2023-02-03T03:38:58;99948.28;;;5.16;73.76
2675;BME280;1347;42.122;24.746;2023-02-03T03:41:37;99957.72;;;5.10;73.63
2675;BME280;1347;42.122;24.746;2023-02-03T03:44:10;99954.53;;;5.08;74.07
2675;BME280;1347;42.122;24.746;2023-02-03T03:46:43;99951.00;;;4.99;73.69
2675;BME280;1347;42.122;24.746;2023-02-03T03:49:13;99950.56;;;4.97;73.93
2675;BME280;1347;42.122;24.746;2023-02-03T03:51:45;99950.72;;;4.92;74.31
2675;BME280;1347;42.122;24.746;2023-02-03T03:54:16;99948.97;;;4.87;73.52
2675;BME280;1347;42.122;24.746;2023-02-03T03:56:47;99946.56;;;4.86;73.54
2675;BME280;1347;42.122;24.746;2023-02-03T03:59:19;99950.91;;;4.78;73.65
2675;BME280;1347;42.122;24.746;2023-02-03T04:01:47;99958.56;;;4.76;73.52
2675;BME280;1347;42.122;24.746;2023-02-03T04:04:17;99961.28;;;4.67;73.77
2675;BME280;1347;42.122;24.746;2023-02-03T04:06:44;99971.78;;;4.69;73.52
2675;BME280;1347;42.122;24.746;2023-02-03T04:09:11;99976.28;;;4.73;73.17
2675;BME280;1347;42.122;24.746;2023-02-03T04:11:38;99982.34;;;4.70;73.28
2675;BME280;1347;42.122;24.746;2023-02-03T04:14:22;99987.63;;;4.75;73.35
2675;BME280;1347;42.122;24.746;2023-02-03T04:16:49;99991.78;;;4.81;73.22
2675;BME280;1347;42.122;24.746;2023-02-03T04:19:17;99991.63;;;4.78;72.91
2675;BME280;1347;42.122;24.746;2023-02-03T04:21:44;100004.88;;;4.71;73.01
2675;BME280;1347;42.122;24.746;2023-02-03T04:24:11;99997.06;;;4.78;73.29
2675;BME280;1347;42.122;24.746;2023-02-03T04:26:38;100006.66;;;4.84;73.42
2675;BME280;1347;42.122;24.746;2023-02-03T04:29:05;100006.66;;;4.84;73.04
2675;BME280;1347;42.122;24.746;2023-02-03T04:31:32;100000.25;;;4.80;73.43
2675;BME280;1347;42.122;24.746;2023-02-03T04:33:59;99998.50;;;4.75;73.58
2675;BME280;1347;42.122;24.746;2023-02-03T04:36:27;99998.31;;;4.80;73.72
2675;BME280;1347;42.122;24.746;2023-02-03T04:38:54;100000.91;;;4.77;73.83
2675;BME280;1347;42.122;24.746;2023-02-03T04:41:21;99984.75;;;4.80;74.02
2675;BME280;1347;42.122;24.746;2023-02-03T04:43:48;99983.63;;;4.81;74.06
2675;BME280;1347;42.122;24.746;2023-02-03T04:46:15;99982.19;;;4.84;74.09
2675;BME280;1347;42.122;24.746;2023-02-03T04:48:43;99980.91;;;4.81;74.38
2675;BME280;1347;42.122;24.746;2023-02-03T04:51:10;99984.59;;;4.77;74.36
2675;BME280;1347;42.122;24.746;2023-02-03T04:53:38;99981.88;;;4.77;74.43
2675;BME280;1347;42.122;24.746;2023-02-03T04:56:05;99982.34;;;4.70;74.82
2675;BME280;1347;42.122;24.746;2023-02-03T04:58:32;99979.94;;;4.60;75.30
2675;BME280;1347;42.122;24.746;2023-02-03T05:01:05;99984.88;;;4.58;75.27
2675;BME280;1347;42.122;24.746;2023-02-03T05:03:33;99993.19;;;4.53;75.35
2675;BME280;1347;42.122;24.746;2023-02-03T05:06:00;99995.13;;;4.53;75.63
2675;BME280;1347;42.122;24.746;2023-02-03T05:08:27;99997.34;;;4.51;75.72
2675;BME280;1347;42.122;24.746;2023-02-03T05:10:56;99986.16;;;4.52;75.39
2675;BME280;1347;42.122;24.746;2023-02-03T05:13:23;99980.75;;;4.52;75.09
2675;BME280;1347;42.122;24.746;2023-02-03T05:15:50;99985.84;;;4.54;75.02
2675;BME280;1347;42.122;24.746;2023-02-03T05:18:17;99991.59;;;4.52;74.65
2675;BME280;1347;42.122;24.746;2023-02-03T05:20:43;99997.19;;;4.56;74.55
2675;BME280;1347;42.122;24.746;2023-02-03T05:23:10;99989.19;;;4.51;74.49
2675;BME280;1347;42.122;24.746;2023-02-03T05:25:37;99996.22;;;4.52;73.97
2675;BME280;1347;42.122;24.746;2023-02-03T05:28:05;100008.19;;;4.51;73.70
2675;BME280;1347;42.122;24.746;2023-02-03T05:30:32;100004.69;;;4.50;73.41
2675;BME280;1347;42.122;24.746;2023-02-03T05:32:59;100019.53;;;4.44;73.67
2675;BME280;1347;42.122;24.746;2023-02-03T05:35:26;100017.75;;;4.39;74.02
2675;BME280;1347;42.122;24.746;2023-02-03T05:37:53;100024.78;;;4.40;74.02
2675;BME280;1347;42.122;24.746;2023-02-03T05:40:20;100025.09;;;4.39;73.99
2675;BME280;1347;42.122;24.746;2023-02-03T05:43:05;100017.13;;;4.34;73.89
2675;BME280;1347;42.122;24.746;2023-02-03T05:45:33;100026.03;;;4.26;74.20
2675;BME280;1347;42.122;24.746;2023-02-03T05:48:00;100011.66;;;4.17;74.61
2675;BME280;1347;42.122;24.746;2023-02-03T05:50:28;100016.59;;;4.15;75.05
2675;BME280;1347;42.122;24.746;2023-02-03T05:52:57;100026.16;;;4.12;74.93
2675;BME280;1347;42.122;24.746;2023-02-03T05:55:25;100024.41;;;4.16;74.82
2675;BME280;1347;42.122;24.746;2023-02-03T05:57:52;100026.44;;;4.11;74.76
2675;BME280;1347;42.122;24.746;2023-02-03T06:00:21;100031.53;;;4.03;74.88
2675;BME280;1347;42.122;24.746;2023-02-03T06:02:50;100033.00;;;4.10;75.17
2675;BME280;1347;42.122;24.746;2023-02-03T06:05:17;100039.72;;;4.21;74.48
2675;BME280;1347;42.122;24.746;2023-02-03T06:07:44;100046.34;;;4.37;73.58
2675;BME280;1347;42.122;24.746;2023-02-03T06:10:11;100048.47;;;4.66;73.34
2675;BME280;1347;42.122;24.746;2023-02-03T06:12:38;100050.91;;;5.10;70.88
2675;BME280;1347;42.122;24.746;2023-02-03T06:15:06;100062.88;;;5.52;69.21
2675;BME280;1347;42.122;24.746;2023-02-03T06:17:34;100061.75;;;5.45;68.06
2675;BME280;1347;42.122;24.746;2023-02-03T06:20:02;100080.81;;;5.36;68.48
2675;BME280;1347;42.122;24.746;2023-02-03T06:22:29;100083.06;;;5.17;68.81
2675;BME280;1347;42.122;24.746;2023-02-03T06:24:56;100092.16;;;5.04;68.86
2675;BME280;1347;42.122;24.746;2023-02-03T06:27:22;100083.69;;;4.97;68.82
2675;BME280;1347;42.122;24.746;2023-02-03T06:29:49;100077.44;;;4.88;69.14
2675;BME280;1347;42.122;24.746;2023-02-03T06:32:16;100087.50;;;4.87;68.91
2675;BME280;1347;42.122;24.746;2023-02-03T06:34:45;100098.69;;;4.86;68.53
2675;BME280;1347;42.122;24.746;2023-02-03T06:37:12;100091.97;;;4.83;68.73
2675;BME280;1347;42.122;24.746;2023-02-03T06:39:38;100106.97;;;4.89;68.54
2675;BME280;1347;42.122;24.746;2023-02-03T06:42:05;100106.34;;;4.92;68.24
2675;BME280;1347;42.122;24.746;2023-02-03T06:44:32;100102.53;;;5.10;67.94
2675;BME280;1347;42.122;24.746;2023-02-03T06:46:59;100107.66;;;5.21;67.12
2675;BME280;1347;42.122;24.746;2023-02-03T06:49:27;100116.28;;;5.31;66.87
2675;BME280;1347;42.122;24.746;2023-02-03T06:51:56;100112.47;;;5.24;67.00
2675;BME280;1347;42.122;24.746;2023-02-03T06:54:23;100124.63;;;5.17;67.20
2675;BME280;1347;42.122;24.746;2023-02-03T06:56:50;100123.00;;;5.16;67.28
2675;BME280;1347;42.122;24.746;2023-02-03T06:59:17;100131.66;;;5.18;67.67
2675;BME280;1347;42.122;24.746;2023-02-03T07:01:44;100139.50;;;5.29;67.31
2675;BME280;1347;42.122;24.746;2023-02-03T07:04:11;100140.75;;;5.31;66.90
2675;BME280;1347;42.122;24.746;2023-02-03T07:06:37;100141.09;;;5.38;66.48
2675;BME280;1347;42.122;24.746;2023-02-03T07:09:06;100136.13;;;5.40;66.38
2675;BME280;1347;42.122;24.746;2023-02-03T07:11:33;100124.94;;;5.33;66.60
2675;BME280;1347;42.122;24.746;2023-02-03T07:13:59;100130.22;;;5.38;66.41
2675;BME280;1347;42.122;24.746;2023-02-03T07:16:26;100130.69;;;5.49;66.31
2675;BME280;1347;42.122;24.746;2023-02-03T07:18:53;100119.94;;;5.61;66.33
2675;BME280;1347;42.122;24.746;2023-02-03T07:21:20;100119.16;;;5.78;65.68
2675;BME280;1347;42.122;24.746;2023-02-03T07:23:47;100132.44;;;5.97;65.53
2675;BME280;1347;42.122;24.746;2023-02-03T07:26:16;100124.41;;;6.09;65.67
2675;BME280;1347;42.122;24.746;2023-02-03T07:28:44;100122.72;;;6.92;63.94
2675;BME280;1347;42.122;24.746;2023-02-03T07:31:11;100116.06;;;8.67;58.86
2675;BME280;1347;42.122;24.746;2023-02-03T07:33:38;100145.09;;;9.08;57.29
2675;BME280;1347;42.122;24.746;2023-02-03T07:36:06;100147.63;;;9.13;56.45
2675;BME280;1347;42.122;24.746;2023-02-03T07:38:33;100161.16;;;9.34;56.18
2675;BME280;1347;42.122;24.746;2023-02-03T07:41:02;100138.06;;;9.87;54.47
2675;BME280;1347;42.122;24.746;2023-02-03T07:43:30;100136.59;;;9.37;54.17
2675;BME280;1347;42.122;24.746;2023-02-03T07:45:57;100148.59;;;9.33;54.23
2675;BME280;1347;42.122;24.746;2023-02-03T07:48:26;100153.56;;;9.03;55.25
2675;BME280;1347;42.122;24.746;2023-02-03T07:50:53;100148.09;;;8.91;55.60
2675;BME280;1347;42.122;24.746;2023-02-03T07:53:20;100157.09;;;8.91;56.21
2675;BME280;1347;42.122;24.746;2023-02-03T07:55:46;100145.22;;;9.64;54.77
2675;BME280;1347;42.122;24.746;2023-02-03T07:58:13;100169.63;;;10.40;52.71
2675;BME280;1347;42.122;24.746;2023-02-03T08:00:42;100166.59;;;11.43;50.62
2675;BME280;1347;42.122;24.746;2023-02-03T08:03:10;100139.56;;;11.80;48.79
2675;BME280;1347;42.122;24.746;2023-02-03T08:05:37;100173.09;;;13.52;46.30
2675;BME280;1347;42.122;24.746;2023-02-03T08:08:04;100169.75;;;14.73;42.83
2675;BME280;1347;42.122;24.746;2023-02-03T08:10:31;100176.91;;;16.27;41.03
2675;BME280;1347;42.122;24.746;2023-02-03T08:12:58;100174.00;;;18.70;38.26
2675;BME280;1347;42.122;24.746;2023-02-03T08:15:25;100155.38;;;20.71;34.17
2675;BME280;1347;42.122;24.746;2023-02-03T08:17:53;100173.69;;;19.46;33.82
2675;BME280;1347;42.122;24.746;2023-02-03T08:20:20;100178.22;;;20.85;32.80
2675;BME280;1347;42.122;24.746;2023-02-03T08:22:47;100178.25;;;21.91;31.20
2675;BME280;1347;42.122;24.746;2023-02-03T08:25:14;100177.13;;;21.69;30.33
2675;BME280;1347;42.122;24.746;2023-02-03T08:27:41;100179.25;;;19.84;32.83
2675;BME280;1347;42.122;24.746;2023-02-03T08:30:11;100178.41;;;20.98;31.46
2675;BME280;1347;42.122;24.746;2023-02-03T08:32:39;100172.41;;;23.39;29.20
2675;BME280;1347;42.122;24.746;2023-02-03T08:35:07;100163.94;;;21.07;29.96
2675;BME280;1347;42.122;24.746;2023-02-03T08:37:34;100172.84;;;19.87;31.04
2675;BME280;1347;42.122;24.746;2023-02-03T08:40:05;100186.22;;;19.99;31.68
2675;BME280;1347;42.122;24.746;2023-02-03T08:42:32;100184.94;;;21.97;29.83
2675;BME280;1347;42.122;24.746;2023-02-03T08:44:59;100163.19;;;22.09;29.19
2675;BME280;1347;42.122;24.746;2023-02-03T08:47:26;100154.13;;;22.89;27.92
2675;BME280;1347;42.122;24.746;2023-02-03T08:49:53;100182.66;;;22.64;28.41
2675;BME280;1347;42.122;24.746;2023-02-03T08:52:21;100190.63;;;22.66;27.98
2675;BME280;1347;42.122;24.746;2023-02-03T08:54:48;100193.13;;;22.60;27.96
2675;BME280;1347;42.122;24.746;2023-02-03T08:57:15;100194.50;;;22.88;28.25
2675;BME280;1347;42.122;24.746;2023-02-03T08:59:43;100186.19;;;23.91;26.89
2675;BME280;1347;42.122;24.746;2023-02-03T09:02:13;100199.34;;;23.33;27.41
2675;BME280;1347;42.122;24.746;2023-02-03T09:04:41;100183.06;;;22.99;26.87
2675;BME280;1347;42.122;24.746;2023-02-03T09:07:08;100191.41;;;22.66;27.24
2675;BME280;1347;42.122;24.746;2023-02-03T09:09:37;100193.06;;;21.88;28.31
2675;BME280;1347;42.122;24.746;2023-02-03T09:12:05;100172.53;;;21.79;28.19
2675;BME280;1347;42.122;24.746;2023-02-03T09:14:32;100175.84;;;22.65;27.07
2675;BME280;1347;42.122;24.746;2023-02-03T09:17:01;100198.38;;;20.43;28.63
2675;BME280;1347;42.122;24.746;2023-02-03T09:19:29;100195.34;;;19.66;29.61
2675;BME280;1347;42.122;24.746;2023-02-03T09:21:56;100197.94;;;18.43;30.15
2675;BME280;1347;42.122;24.746;2023-02-03T09:24:23;100185.47;;;19.20;29.82
2675;BME280;1347;42.122;24.746;2023-02-03T09:26:52;100181.16;;;18.64;30.35
2675;BME280;1347;42.122;24.746;2023-02-03T09:29:19;100182.28;;;18.73;30.70
2675;BME280;1347;42.122;24.746;2023-02-03T09:31:48;100179.94;;;18.72;30.80
2675;BME280;1347;42.122;24.746;2023-02-03T09:34:17;100179.88;;;18.13;31.85
2675;BME280;1347;42.122;24.746;2023-02-03T09:36:45;100180.41;;;18.53;31.35
2675;BME280;1347;42.122;24.746;2023-02-03T09:39:13;100166.25;;;18.95;30.33
2675;BME280;1347;42.122;24.746;2023-02-03T09:41:55;100151.06;;;18.62;30.70
2675;BME280;1347;42.122;24.746;2023-02-03T09:44:31;100174.44;;;19.54;29.50
2675;BME280;1347;42.122;24.746;2023-02-03T09:47:02;100142.88;;;18.93;30.19
2675;BME280;1347;42.122;24.746;2023-02-03T09:49:36;100163.13;;;17.15;31.35
2675;BME280;1347;42.122;24.746;2023-02-03T09:52:12;100142.13;;;18.26;30.71
2675;BME280;1347;42.122;24.746;2023-02-03T09:54:43;100159.00;;;19.05;28.92
2675;BME280;1347;42.122;24.746;2023-02-03T09:57:19;100152.25;;;20.42;28.25
2675;BME280;1347;42.122;24.746;2023-02-03T09:59:47;100167.69;;;19.85;28.11
2675;BME280;1347;42.122;24.746;2023-02-03T10:02:24;100167.91;;;18.27;29.34
2675;BME280;1347;42.122;24.746;2023-02-03T10:04:58;100153.34;;;18.05;29.70
2675;BME280;1347;42.122;24.746;2023-02-03T10:07:30;100181.25;;;17.55;30.09
2675;BME280;1347;42.122;24.746;2023-02-03T10:10:06;100147.63;;;18.33;30.07
2675;BME280;1347;42.122;24.746;2023-02-03T10:16:40;100163.69;;;18.70;29.20
2675;BME280;1347;42.122;24.746;2023-02-03T10:19:13;100167.75;;;19.03;29.21
2675;BME280;1347;42.122;24.746;2023-02-03T10:21:48;100158.28;;;17.65;29.69
2675;BME280;1347;42.122;24.746;2023-02-03T10:24:23;100178.47;;;17.77;29.78
2675;BME280;1347;42.122;24.746;2023-02-03T10:26:54;100151.13;;;17.75;29.74
2675;BME280;1347;42.122;24.746;2023-02-03T10:29:38;100162.59;;;18.57;28.72
2675;BME280;1347;42.122;24.746;2023-02-03T10:32:10;100131.84;;;18.23;29.47
2675;BME280;1347;42.122;24.746;2023-02-03T10:34:40;100146.72;;;17.81;29.56
2675;BME280;1347;42.122;24.746;2023-02-03T10:37:19;100135.81;;;17.28;30.49
2675;BME280;1347;42.122;24.746;2023-02-03T10:39:51;100133.84;;;16.50;31.12
2675;BME280;1347;42.122;24.746;2023-02-03T10:42:18;100151.63;;;16.32;31.45
2675;BME280;1347;42.122;24.746;2023-02-03T10:44:49;100139.63;;;15.78;32.01
2675;BME280;1347;42.122;24.746;2023-02-03T10:47:26;100124.28;;;15.95;32.00
2675;BME280;1347;42.122;24.746;2023-02-03T10:49:55;100136.28;;;16.66;31.19
2675;BME280;1347;42.122;24.746;2023-02-03T10:52:31;100144.38;;;15.77;32.29
2675;BME280;1347;42.122;24.746;2023-02-03T10:54:58;100135.84;;;15.38;33.19
2675;BME280;1347;42.122;24.746;2023-02-03T10:57:27;100134.63;;;15.29;33.08
2675;BME280;1347;42.122;24.746;2023-02-03T11:00:10;100141.28;;;15.21;33.07
2675;BME280;1347;42.122;24.746;2023-02-03T11:02:54;100124.28;;;15.15;33.09
2675;BME280;1347;42.122;24.746;2023-02-03T11:05:22;100131.81;;;14.63;33.77
2675;BME280;1347;42.122;24.746;2023-02-03T11:07:51;100136.50;;;15.14;33.85
2675;BME280;1347;42.122;24.746;2023-02-03T11:10:26;100131.44;;;15.27;33.03
2675;BME280;1347;42.122;24.746;2023-02-03T11:13:17;100138.19;;;16.51;31.21
2675;BME280;1347;42.122;24.746;2023-02-03T11:15:51;100134.25;;;16.35;31.19
2675;BME280;1347;42.122;24.746;2023-02-03T11:18:35;100123.78;;;17.81;30.95
2675;BME280;1347;42.122;24.746;2023-02-03T11:21:12;100122.91;;;18.53;29.45
2675;BME280;1347;42.122;24.746;2023-02-03T11:23:48;100132.50;;;18.93;28.73
2675;BME280;1347;42.122;24.746;2023-02-03T11:26:18;100138.31;;;18.68;28.63
2675;BME280;1347;42.122;24.746;2023-02-03T11:28:49;100125.63;;;18.01;28.91
2675;BME280;1347;42.122;24.746;2023-02-03T11:31:21;100121.16;;;17.27;29.60
2675;BME280;1347;42.122;24.746;2023-02-03T11:33:53;100126.34;;;16.90;30.13
2675;BME280;1347;42.122;24.746;2023-02-03T11:36:21;100095.88;;;16.15;31.23
2675;BME280;1347;42.122;24.746;2023-02-03T11:38:48;100128.25;;;16.04;31.10
2675;BME280;1347;42.122;24.746;2023-02-03T11:41:17;100105.22;;;15.68;31.52
2675;BME280;1347;42.122;24.746;2023-02-03T11:43:45;100102.88;;;15.74;31.38
2675;BME280;1347;42.122;24.746;2023-02-03T11:46:13;100108.16;;;14.66;32.74
2675;BME280;1347;42.122;24.746;2023-02-03T11:48:54;100096.69;;;14.60;33.02
2675;BME280;1347;42.122;24.746;2023-02-03T11:51:31;100091.94;;;14.13;32.77
2675;BME280;1347;42.122;24.746;2023-02-03T11:54:16;100085.06;;;13.30;34.34
2675;BME280;1347;42.122;24.746;2023-02-03T11:57:04;100083.56;;;12.79;34.44
2675;BME280;1347;42.122;24.746;2023-02-03T11:59:44;100085.56;;;12.10;36.32
2675;BME280;1347;42.122;24.746;2023-02-03T12:02:40;100079.72;;;11.93;35.38
2675;BME280;1347;42.122;24.746;2023-02-03T12:05:39;100064.22;;;11.62;35.74
2675;BME280;1347;42.122;24.746;2023-02-03T12:08:21;100070.66;;;11.50;36.18
2675;BME280;1347;42.122;24.746;2023-02-03T12:11:02;100072.59;;;11.11;36.08
2675;BME280;1347;42.122;24.746;2023-02-03T12:13:57;100058.94;;;11.15;36.29
2675;BME280;1347;42.122;24.746;2023-02-03T12:16:52;100045.38;;;11.41;37.03
2675;BME280;1347;42.122;24.746;2023-02-03T12:19:28;100051.59;;;11.76;36.12
2675;BME280;1347;42.122;24.746;2023-02-03T12:22:07;100046.38;;;11.91;35.72
2675;BME280;1347;42.122;24.746;2023-02-03T12:24:44;100045.38;;;12.25;35.00
2675;BME280;1347;42.122;24.746;2023-02-03T12:27:29;100047.94;;;12.64;34.85
2675;BME280;1347;42.122;24.746;2023-02-03T12:30:01;100052.69;;;12.67;34.80
2675;BME280;1347;42.122;24.746;2023-02-03T12:32:33;100041.47;;;12.52;34.98
2675;BME280;1347;42.122;24.746;2023-02-03T12:35:10;100048.91;;;12.26;34.79
2675;BME280;1347;42.122;24.746;2023-02-03T12:37:46;100059.81;;;12.19;35.52
2675;BME280;1347;42.122;24.746;2023-02-03T12:40:19;100056.78;;;12.04;34.92
2675;BME280;1347;42.122;24.746;2023-02-03T12:42:52;100057.09;;;11.76;36.03
2675;BME280;1347;42.122;24.746;2023-02-03T12:45:23;100046.38;;;11.91;35.69
2675;BME280;1347;42.122;24.746;2023-02-03T12:47:55;100047.72;;;12.00;35.53
2675;BME280;1347;42.122;24.746;2023-02-03T12:50:29;100047.09;;;11.88;35.51
2675;BME280;1347;42.122;24.746;2023-02-03T12:53:01;100049.09;;;11.71;35.52
2675;BME280;1347;42.122;24.746;2023-02-03T12:55:33;100033.22;;;11.61;35.96
2675;BME280;1347;42.122;24.746;2023-02-03T12:58:04;100036.56;;;11.32;35.96
2675;BME280;1347;42.122;24.746;2023-02-03T13:00:40;100033.31;;;11.26;36.15
2675;BME280;1347;42.122;24.746;2023-02-03T13:03:17;100034.41;;;11.22;36.29
2675;BME280;1347;42.122;24.746;2023-02-03T13:05:49;100038.16;;;11.14;36.02
2675;BME280;1347;42.122;24.746;2023-02-03T13:08:28;100000.75;;;11.05;35.89
2675;BME280;1347;42.122;24.746;2023-02-03T13:11:09;100027.25;;;10.98;35.59
2675;BME280;1347;42.122;24.746;2023-02-03T13:13:41;100023.41;;;11.02;35.68
2675;BME280;1347;42.122;24.746;2023-02-03T13:16:10;100025.31;;;11.18;35.43
2675;BME280;1347;42.122;24.746;2023-02-03T13:18:43;100030.00;;;10.98;35.46
2675;BME280;1347;42.122;24.746;2023-02-03T13:21:11;100024.09;;;10.80;35.81
2675;BME280;1347;42.122;24.746;2023-02-03T13:23:42;100027.13;;;10.75;35.92
2675;BME280;1347;42.122;24.746;2023-02-03T13:26:30;100023.81;;;10.66;35.91
2675;BME280;1347;42.122;24.746;2023-02-03T13:29:13;100023.56;;;10.55;36.01
2675;BME280;1347;42.122;24.746;2023-02-03T13:31:54;100016.63;;;10.61;36.61